sensor_id;sensor_type;location;lat;lon;timestamp;P1;durP1;ratioP1;P2;durP2;ratioP2
71343;SDS011;59146;43.850;25.948;2022-10-17T00:00:47;24.63;;;14.55;;
71343;SDS011;59146;43.850;25.948;2022-10-17T00:03:13;25.38;;;14.43;;
71343;SDS011;59146;43.850;25.948;2022-10-17T00:05:43;26.67;;;13.43;;
71343;SDS011;59146;43.850;25.948;2022-10-17T00:08:10;28.00;;;15.43;;
71343;SDS011;59146;43.850;25.948;2022-10-17T00:10:37;27.27;;;17.88;;
71343;SDS011;59146;43.850;25.948;2022-10-17T00:13:03;23.40;;;14.57;;
71343;SDS011;59146;43.850;25.948;2022-10-17T00:15:29;22.85;;;13.77;;
71343;SDS011;59146;43.850;25.948;2022-10-17T00:17:56;21.40;;;13.95;;
71343;SDS011;59146;43.850;25.948;2022-10-17T00:20:21;23.10;;;14.25;;
71343;SDS011;59146;43.850;25.948;2022-10-17T00:22:47;24.02;;;13.57;;
71343;SDS011;59146;43.850;25.948;2022-10-17T00:25:13;24.55;;;13.65;;
71343;SDS011;59146;43.850;25.948;2022-10-17T00:27:39;23.35;;;12.57;;
71343;SDS011;59146;43.850;25.948;2022-10-17T00:30:06;21.10;;;10.38;;
71343;SDS011;59146;43.850;25.948;2022-10-17T00:32:35;12.07;;;9.13;;
71343;SDS011;59146;43.850;25.948;2022-10-17T00:35:00;16.85;;;9.10;;
71343;SDS011;59146;43.850;25.948;2022-10-17T00:37:26;16.95;;;9.45;;
71343;SDS011;59146;43.850;25.948;2022-10-17T00:39:52;16.13;;;9.20;;
71343;SDS011;59146;43.850;25.948;2022-10-17T00:42:18;15.70;;;8.95;;
71343;SDS011;59146;43.850;25.948;2022-10-17T00:47:12;15.20;;;8.40;;
71343;SDS011;59146;43.850;25.948;2022-10-17T00:49:41;11.57;;;7.55;;
71343;SDS011;59146;43.850;25.948;2022-10-17T00:52:07;16.63;;;8.23;;
71343;SDS011;59146;43.850;25.948;2022-10-17T00:55:00;13.13;;;7.63;;
71343;SDS011;59146;43.850;25.948;2022-10-17T00:57:28;11.70;;;7.15;;
71343;SDS011;59146;43.850;25.948;2022-10-17T00:59:55;13.52;;;7.45;;
71343;SDS011;59146;43.850;25.948;2022-10-17T01:02:23;14.27;;;8.70;;
71343;SDS011;59146;43.850;25.948;2022-10-17T01:04:49;18.15;;;7.93;;
71343;SDS011;59146;43.850;25.948;2022-10-17T01:07:19;18.17;;;7.82;;
71343;SDS011;59146;43.850;25.948;2022-10-17T01:09:45;15.57;;;7.53;;
71343;SDS011;59146;43.850;25.948;2022-10-17T01:20:43;16.90;;;7.75;;
71343;SDS011;59146;43.850;25.948;2022-10-17T01:31:15;17.10;;;8.13;;
71343;SDS011;59146;43.850;25.948;2022-10-17T01:33:52;20.13;;;8.93;;
71343;SDS011;59146;43.850;25.948;2022-10-17T01:41:39;22.80;;;11.23;;
71343;SDS011;59146;43.850;25.948;2022-10-17T01:44:18;16.10;;;10.07;;
71343;SDS011;59146;43.850;25.948;2022-10-17T01:46:49;22.42;;;13.80;;
71343;SDS011;59146;43.850;25.948;2022-10-17T01:49:17;20.73;;;11.57;;
71343;SDS011;59146;43.850;25.948;2022-10-17T01:51:54;14.57;;;10.43;;
71343;SDS011;59146;43.850;25.948;2022-10-17T01:54:26;20.98;;;11.57;;
71343;SDS011;59146;43.850;25.948;2022-10-17T01:56:58;22.50;;;10.75;;
71343;SDS011;59146;43.850;25.948;2022-10-17T01:59:30;20.52;;;13.25;;
71343;SDS011;59146;43.850;25.948;2022-10-17T02:02:02;25.88;;;11.65;;
71343;SDS011;59146;43.850;25.948;2022-10-17T02:04:30;16.67;;;11.23;;
71343;SDS011;59146;43.850;25.948;2022-10-17T02:06:55;17.35;;;10.93;;
71343;SDS011;59146;43.850;25.948;2022-10-17T02:09:24;17.38;;;10.93;;
71343;SDS011;59146;43.850;25.948;2022-10-17T02:11:53;21.23;;;11.52;;
71343;SDS011;59146;43.850;25.948;2022-10-17T02:20:24;15.48;;;9.50;;
71343;SDS011;59146;43.850;25.948;2022-10-17T02:25:38;21.40;;;12.00;;
71343;SDS011;59146;43.850;25.948;2022-10-17T02:35:53;21.40;;;12.00;;
71343;SDS011;59146;43.850;25.948;2022-10-17T02:38:23;16.30;;;11.80;;
71343;SDS011;59146;43.850;25.948;2022-10-17T02:40:52;19.10;;;11.90;;
71343;SDS011;59146;43.850;25.948;2022-10-17T02:43:18;17.33;;;12.00;;
71343;SDS011;59146;43.850;25.948;2022-10-17T02:45:45;21.30;;;11.20;;
71343;SDS011;59146;43.850;25.948;2022-10-17T02:48:13;19.55;;;11.52;;
71343;SDS011;59146;43.850;25.948;2022-10-17T02:50:51;23.60;;;12.02;;
71343;SDS011;59146;43.850;25.948;2022-10-17T02:53:27;19.42;;;12.02;;
71343;SDS011;59146;43.850;25.948;2022-10-17T02:55:57;19.70;;;11.90;;
71343;SDS011;59146;43.850;25.948;2022-10-17T02:58:27;20.17;;;11.25;;
71343;SDS011;59146;43.850;25.948;2022-10-17T03:00:57;17.10;;;10.93;;
71343;SDS011;59146;43.850;25.948;2022-10-17T03:03:27;22.85;;;12.10;;
71343;SDS011;59146;43.850;25.948;2022-10-17T03:05:54;21.60;;;11.98;;
71343;SDS011;59146;43.850;25.948;2022-10-17T03:08:20;18.42;;;10.77;;
71343;SDS011;59146;43.850;25.948;2022-10-17T03:10:47;20.85;;;11.48;;
71343;SDS011;59146;43.850;25.948;2022-10-17T03:13:12;22.60;;;10.60;;
71343;SDS011;59146;43.850;25.948;2022-10-17T03:15:38;20.63;;;11.80;;
71343;SDS011;59146;43.850;25.948;2022-10-17T03:18:03;19.30;;;10.80;;
71343;SDS011;59146;43.850;25.948;2022-10-17T03:20:29;23.92;;;11.05;;
71343;SDS011;59146;43.850;25.948;2022-10-17T03:22:54;23.63;;;10.77;;
71343;SDS011;59146;43.850;25.948;2022-10-17T03:25:20;18.63;;;11.73;;
71343;SDS011;59146;43.850;25.948;2022-10-17T03:27:45;20.95;;;11.98;;
71343;SDS011;59146;43.850;25.948;2022-10-17T03:30:11;25.90;;;11.98;;
71343;SDS011;59146;43.850;25.948;2022-10-17T03:32:36;18.40;;;11.90;;
71343;SDS011;59146;43.850;25.948;2022-10-17T03:35:02;21.10;;;11.65;;
71343;SDS011;59146;43.850;25.948;2022-10-17T03:37:28;27.33;;;11.88;;
71343;SDS011;59146;43.850;25.948;2022-10-17T03:39:53;16.73;;;11.02;;
71343;SDS011;59146;43.850;25.948;2022-10-17T03:42:19;20.08;;;12.05;;
71343;SDS011;59146;43.850;25.948;2022-10-17T03:44:44;21.10;;;11.32;;
71343;SDS011;59146;43.850;25.948;2022-10-17T03:47:10;25.92;;;12.48;;
71343;SDS011;59146;43.850;25.948;2022-10-17T03:49:35;30.35;;;14.50;;
71343;SDS011;59146;43.850;25.948;2022-10-17T03:52:01;24.67;;;14.30;;
71343;SDS011;59146;43.850;25.948;2022-10-17T03:54:26;23.40;;;11.68;;
71343;SDS011;59146;43.850;25.948;2022-10-17T03:56:52;23.23;;;10.88;;
71343;SDS011;59146;43.850;25.948;2022-10-17T03:59:17;24.83;;;11.45;;
71343;SDS011;59146;43.850;25.948;2022-10-17T04:01:43;24.90;;;11.20;;
71343;SDS011;59146;43.850;25.948;2022-10-17T04:04:08;15.07;;;9.90;;
71343;SDS011;59146;43.850;25.948;2022-10-17T04:06:35;21.67;;;11.27;;
71343;SDS011;59146;43.850;25.948;2022-10-17T04:09:01;20.52;;;11.45;;
71343;SDS011;59146;43.850;25.948;2022-10-17T04:11:28;27.83;;;12.23;;
71343;SDS011;59146;43.850;25.948;2022-10-17T04:13:54;27.58;;;12.25;;
71343;SDS011;59146;43.850;25.948;2022-10-17T04:16:21;26.67;;;11.68;;
71343;SDS011;59146;43.850;25.948;2022-10-17T04:18:46;27.08;;;12.25;;
71343;SDS011;59146;43.850;25.948;2022-10-17T04:21:16;24.55;;;11.00;;
71343;SDS011;59146;43.850;25.948;2022-10-17T04:23:42;23.00;;;10.88;;
71343;SDS011;59146;43.850;25.948;2022-10-17T04:26:08;23.20;;;11.80;;
71343;SDS011;59146;43.850;25.948;2022-10-17T04:28:33;25.40;;;11.25;;
71343;SDS011;59146;43.850;25.948;2022-10-17T04:31:02;21.13;;;10.85;;
71343;SDS011;59146;43.850;25.948;2022-10-17T04:33:33;27.00;;;12.63;;
71343;SDS011;59146;43.850;25.948;2022-10-17T04:36:03;32.97;;;12.27;;
71343;SDS011;59146;43.850;25.948;2022-10-17T04:38:30;34.22;;;13.20;;
71343;SDS011;59146;43.850;25.948;2022-10-17T04:40:59;26.88;;;12.25;;
71343;SDS011;59146;43.850;25.948;2022-10-17T04:43:27;27.40;;;11.60;;
71343;SDS011;59146;43.850;25.948;2022-10-17T04:46:13;25.50;;;13.43;;
71343;SDS011;59146;43.850;25.948;2022-10-17T04:48:39;29.23;;;14.63;;
71343;SDS011;59146;43.850;25.948;2022-10-17T04:51:12;30.00;;;13.75;;
71343;SDS011;59146;43.850;25.948;2022-10-17T04:53:39;36.10;;;14.88;;
71343;SDS011;59146;43.850;25.948;2022-10-17T04:56:07;34.65;;;14.50;;
71343;SDS011;59146;43.850;25.948;2022-10-17T04:58:41;26.83;;;13.00;;
71343;SDS011;59146;43.850;25.948;2022-10-17T05:01:08;28.88;;;12.73;;
71343;SDS011;59146;43.850;25.948;2022-10-17T05:03:36;31.17;;;12.20;;
71343;SDS011;59146;43.850;25.948;2022-10-17T05:06:06;22.48;;;12.75;;
71343;SDS011;59146;43.850;25.948;2022-10-17T05:08:36;24.58;;;12.10;;
71343;SDS011;59146;43.850;25.948;2022-10-17T05:11:02;27.30;;;12.57;;
71343;SDS011;59146;43.850;25.948;2022-10-17T05:13:29;24.75;;;12.30;;
71343;SDS011;59146;43.850;25.948;2022-10-17T05:15:59;20.92;;;12.38;;
71343;SDS011;59146;43.850;25.948;2022-10-17T05:18:26;20.70;;;11.82;;
71343;SDS011;59146;43.850;25.948;2022-10-17T05:20:54;29.67;;;12.68;;
71343;SDS011;59146;43.850;25.948;2022-10-17T05:23:19;28.90;;;12.65;;
71343;SDS011;59146;43.850;25.948;2022-10-17T05:25:45;32.03;;;13.50;;
71343;SDS011;59146;43.850;25.948;2022-10-17T05:28:10;28.92;;;12.38;;
71343;SDS011;59146;43.850;25.948;2022-10-17T05:30:36;36.65;;;14.68;;
71343;SDS011;59146;43.850;25.948;2022-10-17T05:33:01;39.83;;;15.05;;
71343;SDS011;59146;43.850;25.948;2022-10-17T05:35:27;38.25;;;14.30;;
71343;SDS011;59146;43.850;25.948;2022-10-17T05:37:52;27.48;;;13.90;;
71343;SDS011;59146;43.850;25.948;2022-10-17T05:40:18;28.23;;;13.82;;
71343;SDS011;59146;43.850;25.948;2022-10-17T05:42:46;33.75;;;14.50;;
71343;SDS011;59146;43.850;25.948;2022-10-17T05:45:12;23.85;;;12.40;;
71343;SDS011;59146;43.850;25.948;2022-10-17T05:47:38;23.02;;;12.15;;
71343;SDS011;59146;43.850;25.948;2022-10-17T05:50:04;29.48;;;12.70;;
71343;SDS011;59146;43.850;25.948;2022-10-17T05:52:30;28.25;;;12.65;;
71343;SDS011;59146;43.850;25.948;2022-10-17T05:54:55;23.20;;;11.95;;
71343;SDS011;59146;43.850;25.948;2022-10-17T05:57:23;26.50;;;11.85;;
71343;SDS011;59146;43.850;25.948;2022-10-17T05:59:51;28.50;;;12.00;;
71343;SDS011;59146;43.850;25.948;2022-10-17T06:02:17;24.60;;;13.13;;
71343;SDS011;59146;43.850;25.948;2022-10-17T06:04:43;21.45;;;12.40;;
71343;SDS011;59146;43.850;25.948;2022-10-17T06:07:13;31.27;;;13.63;;
71343;SDS011;59146;43.850;25.948;2022-10-17T06:09:39;30.33;;;13.35;;
71343;SDS011;59146;43.850;25.948;2022-10-17T06:12:04;26.38;;;14.05;;
71343;SDS011;59146;43.850;25.948;2022-10-17T06:14:30;25.80;;;14.05;;
71343;SDS011;59146;43.850;25.948;2022-10-17T06:16:56;31.67;;;14.07;;
71343;SDS011;59146;43.850;25.948;2022-10-17T06:19:21;33.25;;;15.00;;
71343;SDS011;59146;43.850;25.948;2022-10-17T06:21:47;42.33;;;17.38;;
71343;SDS011;59146;43.850;25.948;2022-10-17T06:24:12;31.15;;;15.27;;
71343;SDS011;59146;43.850;25.948;2022-10-17T06:26:38;35.60;;;17.15;;
71343;SDS011;59146;43.850;25.948;2022-10-17T06:29:03;45.53;;;17.42;;
71343;SDS011;59146;43.850;25.948;2022-10-17T06:31:28;28.98;;;17.48;;
71343;SDS011;59146;43.850;25.948;2022-10-17T06:33:54;42.60;;;17.13;;
71343;SDS011;59146;43.850;25.948;2022-10-17T06:36:19;30.58;;;16.55;;
71343;SDS011;59146;43.850;25.948;2022-10-17T06:38:45;41.92;;;17.08;;
71343;SDS011;59146;43.850;25.948;2022-10-17T06:41:11;27.65;;;13.18;;
71343;SDS011;59146;43.850;25.948;2022-10-17T06:43:39;34.63;;;17.80;;
71343;SDS011;59146;43.850;25.948;2022-10-17T06:46:12;59.78;;;32.53;;
71343;SDS011;59146;43.850;25.948;2022-10-17T06:48:39;43.17;;;21.55;;
71343;SDS011;59146;43.850;25.948;2022-10-17T06:51:05;37.72;;;16.45;;
71343;SDS011;59146;43.850;25.948;2022-10-17T06:53:34;38.08;;;17.83;;
71343;SDS011;59146;43.850;25.948;2022-10-17T06:55:59;38.75;;;20.35;;
71343;SDS011;59146;43.850;25.948;2022-10-17T06:58:31;55.38;;;32.45;;
71343;SDS011;59146;43.850;25.948;2022-10-17T07:00:59;74.35;;;40.25;;
71343;SDS011;59146;43.850;25.948;2022-10-17T07:03:26;50.28;;;21.08;;
71343;SDS011;59146;43.850;25.948;2022-10-17T07:05:52;31.50;;;16.63;;
71343;SDS011;59146;43.850;25.948;2022-10-17T07:08:19;31.13;;;16.92;;
71343;SDS011;59146;43.850;25.948;2022-10-17T07:10:45;39.00;;;17.70;;
71343;SDS011;59146;43.850;25.948;2022-10-17T07:13:10;31.23;;;14.93;;
71343;SDS011;59146;43.850;25.948;2022-10-17T07:15:36;37.83;;;15.90;;
71343;SDS011;59146;43.850;25.948;2022-10-17T07:18:03;26.38;;;15.00;;
71343;SDS011;59146;43.850;25.948;2022-10-17T07:20:28;34.60;;;15.45;;
71343;SDS011;59146;43.850;25.948;2022-10-17T07:22:54;31.88;;;15.55;;
71343;SDS011;59146;43.850;25.948;2022-10-17T07:25:19;46.63;;;17.75;;
71343;SDS011;59146;43.850;25.948;2022-10-17T07:27:47;43.60;;;16.70;;
71343;SDS011;59146;43.850;25.948;2022-10-17T07:30:13;44.25;;;15.98;;
71343;SDS011;59146;43.850;25.948;2022-10-17T07:32:39;32.70;;;15.07;;
71343;SDS011;59146;43.850;25.948;2022-10-17T07:35:04;33.60;;;15.05;;
71343;SDS011;59146;43.850;25.948;2022-10-17T07:37:30;39.33;;;15.93;;
71343;SDS011;59146;43.850;25.948;2022-10-17T07:39:55;28.88;;;16.02;;
71343;SDS011;59146;43.850;25.948;2022-10-17T07:42:21;36.83;;;17.40;;
71343;SDS011;59146;43.850;25.948;2022-10-17T07:44:47;47.22;;;17.85;;
71343;SDS011;59146;43.850;25.948;2022-10-17T07:47:13;35.08;;;17.00;;
71343;SDS011;59146;43.850;25.948;2022-10-17T07:49:41;31.00;;;15.48;;
71343;SDS011;59146;43.850;25.948;2022-10-17T07:52:09;31.15;;;14.68;;
71343;SDS011;59146;43.850;25.948;2022-10-17T07:54:36;33.38;;;14.70;;
71343;SDS011;59146;43.850;25.948;2022-10-17T07:57:02;40.22;;;15.00;;
71343;SDS011;59146;43.850;25.948;2022-10-17T07:59:27;31.63;;;14.63;;
71343;SDS011;59146;43.850;25.948;2022-10-17T08:01:55;37.00;;;14.77;;
71343;SDS011;59146;43.850;25.948;2022-10-17T08:04:21;26.33;;;14.15;;
71343;SDS011;59146;43.850;25.948;2022-10-17T08:06:47;26.83;;;13.90;;
71343;SDS011;59146;43.850;25.948;2022-10-17T08:09:13;25.35;;;14.70;;
71343;SDS011;59146;43.850;25.948;2022-10-17T08:11:38;31.00;;;13.88;;
71343;SDS011;59146;43.850;25.948;2022-10-17T08:14:04;27.88;;;13.82;;
71343;SDS011;59146;43.850;25.948;2022-10-17T08:16:29;35.22;;;15.07;;
71343;SDS011;59146;43.850;25.948;2022-10-17T08:18:55;35.35;;;15.43;;
71343;SDS011;59146;43.850;25.948;2022-10-17T08:21:20;34.35;;;15.82;;
71343;SDS011;59146;43.850;25.948;2022-10-17T08:23:46;39.13;;;15.80;;
71343;SDS011;59146;43.850;25.948;2022-10-17T08:26:11;28.40;;;17.45;;
71343;SDS011;59146;43.850;25.948;2022-10-17T08:28:40;31.60;;;16.95;;
71343;SDS011;59146;43.850;25.948;2022-10-17T08:31:10;31.55;;;17.25;;
71343;SDS011;59146;43.850;25.948;2022-10-17T08:33:37;40.15;;;19.00;;
71343;SDS011;59146;43.850;25.948;2022-10-17T08:36:03;32.47;;;17.83;;
71343;SDS011;59146;43.850;25.948;2022-10-17T08:38:30;34.35;;;16.92;;
71343;SDS011;59146;43.850;25.948;2022-10-17T08:40:56;33.97;;;15.70;;
71343;SDS011;59146;43.850;25.948;2022-10-17T08:46:05;34.80;;;16.23;;
71343;SDS011;59146;43.850;25.948;2022-10-17T08:48:38;32.33;;;14.15;;
71343;SDS011;59146;43.850;25.948;2022-10-17T08:53:54;44.70;;;26.90;;
71343;SDS011;59146;43.850;25.948;2022-10-17T08:56:24;25.40;;;13.90;;
71343;SDS011;59146;43.850;25.948;2022-10-17T08:58:54;30.40;;;12.00;;
71343;SDS011;59146;43.850;25.948;2022-10-17T09:09:46;23.33;;;12.40;;
71343;SDS011;59146;43.850;25.948;2022-10-17T09:12:21;21.88;;;11.45;;
71343;SDS011;59146;43.850;25.948;2022-10-17T09:20:18;16.90;;;7.65;;
71343;SDS011;59146;43.850;25.948;2022-10-17T09:22:48;23.88;;;7.95;;
71343;SDS011;59146;43.850;25.948;2022-10-17T09:25:23;18.77;;;7.05;;
71343;SDS011;59146;43.850;25.948;2022-10-17T09:27:53;24.88;;;6.93;;
71343;SDS011;59146;43.850;25.948;2022-10-17T09:33:11;35.90;;;9.23;;
71343;SDS011;59146;43.850;25.948;2022-10-17T09:35:44;13.18;;;6.93;;
71343;SDS011;59146;43.850;25.948;2022-10-17T09:38:20;13.57;;;7.05;;
71343;SDS011;59146;43.850;25.948;2022-10-17T09:40:50;15.10;;;6.28;;
71343;SDS011;59146;43.850;25.948;2022-10-17T09:43:20;19.77;;;4.43;;
71343;SDS011;59146;43.850;25.948;2022-10-17T09:48:39;16.67;;;4.43;;
71343;SDS011;59146;43.850;25.948;2022-10-17T09:51:17;10.77;;;4.68;;
71343;SDS011;59146;43.850;25.948;2022-10-17T09:53:50;6.85;;;4.05;;
71343;SDS011;59146;43.850;25.948;2022-10-17T09:56:21;12.15;;;4.75;;
71343;SDS011;59146;43.850;25.948;2022-10-17T09:58:48;11.77;;;4.78;;
71343;SDS011;59146;43.850;25.948;2022-10-17T10:01:23;15.43;;;5.78;;
71343;SDS011;59146;43.850;25.948;2022-10-17T10:04:09;7.63;;;3.47;;
71343;SDS011;59146;43.850;25.948;2022-10-17T10:06:39;11.63;;;3.38;;
71343;SDS011;59146;43.850;25.948;2022-10-17T10:09:24;9.15;;;4.30;;
71343;SDS011;59146;43.850;25.948;2022-10-17T10:11:56;11.00;;;4.50;;
71343;SDS011;59146;43.850;25.948;2022-10-17T10:16:49;7.95;;;3.53;;
71343;SDS011;59146;43.850;25.948;2022-10-17T10:21:55;12.60;;;4.63;;
71343;SDS011;59146;43.850;25.948;2022-10-17T10:24:22;11.40;;;4.78;;
71343;SDS011;59146;43.850;25.948;2022-10-17T10:26:49;13.07;;;5.03;;
71343;SDS011;59146;43.850;25.948;2022-10-17T10:29:20;8.82;;;4.18;;
71343;SDS011;59146;43.850;25.948;2022-10-17T10:31:46;9.27;;;4.60;;
71343;SDS011;59146;43.850;25.948;2022-10-17T10:37:33;17.48;;;4.85;;
71343;SDS011;59146;43.850;25.948;2022-10-17T10:40:06;8.30;;;4.43;;
71343;SDS011;59146;43.850;25.948;2022-10-17T10:42:42;11.40;;;4.50;;
71343;SDS011;59146;43.850;25.948;2022-10-17T10:45:38;10.80;;;4.95;;
71343;SDS011;59146;43.850;25.948;2022-10-17T10:50:58;7.47;;;3.97;;
71343;SDS011;59146;43.850;25.948;2022-10-17T10:56:28;16.50;;;4.43;;
71343;SDS011;59146;43.850;25.948;2022-10-17T11:01:54;10.20;;;5.85;;
71343;SDS011;59146;43.850;25.948;2022-10-17T11:12:34;16.85;;;4.90;;
71343;SDS011;59146;43.850;25.948;2022-10-17T11:17:59;8.13;;;4.07;;
71343;SDS011;59146;43.850;25.948;2022-10-17T11:20:35;8.05;;;3.90;;
71343;SDS011;59146;43.850;25.948;2022-10-17T11:23:50;13.80;;;3.78;;
71343;SDS011;59146;43.850;25.948;2022-10-17T11:26:16;11.60;;;3.10;;
71343;SDS011;59146;43.850;25.948;2022-10-17T11:28:54;12.68;;;4.55;;
71343;SDS011;59146;43.850;25.948;2022-10-17T11:31:21;10.88;;;3.88;;
71343;SDS011;59146;43.850;25.948;2022-10-17T11:36:29;9.77;;;4.07;;
71343;SDS011;59146;43.850;25.948;2022-10-17T11:39:00;12.10;;;3.60;;
71343;SDS011;59146;43.850;25.948;2022-10-17T11:43:58;11.27;;;4.80;;
71343;SDS011;59146;43.850;25.948;2022-10-17T11:46:31;13.90;;;6.00;;
71343;SDS011;59146;43.850;25.948;2022-10-17T11:54:17;17.40;;;3.55;;
71343;SDS011;59146;43.850;25.948;2022-10-17T11:57:06;6.90;;;3.67;;
71343;SDS011;59146;43.850;25.948;2022-10-17T12:02:10;10.40;;;3.20;;
71343;SDS011;59146;43.850;25.948;2022-10-17T12:04:52;6.25;;;3.60;;
71343;SDS011;59146;43.850;25.948;2022-10-17T12:09:55;8.10;;;3.90;;
71343;SDS011;59146;43.850;25.948;2022-10-17T12:12:41;7.03;;;4.10;;
71343;SDS011;59146;43.850;25.948;2022-10-17T12:17:36;10.07;;;3.63;;
71343;SDS011;59146;43.850;25.948;2022-10-17T12:25:35;8.27;;;3.80;;
71343;SDS011;59146;43.850;25.948;2022-10-17T12:28:13;8.40;;;2.97;;
71343;SDS011;59146;43.850;25.948;2022-10-17T12:30:51;6.03;;;2.83;;
71343;SDS011;59146;43.850;25.948;2022-10-17T12:33:32;3.65;;;2.30;;
71343;SDS011;59146;43.850;25.948;2022-10-17T12:38:51;7.93;;;3.05;;
71343;SDS011;59146;43.850;25.948;2022-10-17T13:00:19;7.28;;;3.22;;
71343;SDS011;59146;43.850;25.948;2022-10-17T13:02:48;12.40;;;3.67;;
71343;SDS011;59146;43.850;25.948;2022-10-17T13:08:19;5.70;;;3.22;;
71343;SDS011;59146;43.850;25.948;2022-10-17T13:10:48;7.93;;;3.35;;
71343;SDS011;59146;43.850;25.948;2022-10-17T13:16:03;9.95;;;3.70;;
71343;SDS011;59146;43.850;25.948;2022-10-17T13:18:29;12.27;;;3.00;;
71343;SDS011;59146;43.850;25.948;2022-10-17T13:23:35;6.20;;;3.20;;
71343;SDS011;59146;43.850;25.948;2022-10-17T13:26:18;7.88;;;3.30;;
71343;SDS011;59146;43.850;25.948;2022-10-17T13:29:09;8.73;;;3.50;;
71343;SDS011;59146;43.850;25.948;2022-10-17T13:31:37;8.68;;;3.65;;
71343;SDS011;59146;43.850;25.948;2022-10-17T13:34:06;8.32;;;3.22;;
71343;SDS011;59146;43.850;25.948;2022-10-17T13:36:40;9.77;;;3.10;;
71343;SDS011;59146;43.850;25.948;2022-10-17T13:39:07;8.90;;;3.65;;
71343;SDS011;59146;43.850;25.948;2022-10-17T13:41:34;6.32;;;3.38;;
71343;SDS011;59146;43.850;25.948;2022-10-17T13:44:01;5.40;;;2.80;;
71343;SDS011;59146;43.850;25.948;2022-10-17T13:48:58;5.55;;;2.67;;
71343;SDS011;59146;43.850;25.948;2022-10-17T13:51:32;6.93;;;3.10;;
71343;SDS011;59146;43.850;25.948;2022-10-17T13:53:58;11.75;;;4.00;;
71343;SDS011;59146;43.850;25.948;2022-10-17T13:56:24;5.97;;;2.88;;
71343;SDS011;59146;43.850;25.948;2022-10-17T14:01:17;9.68;;;2.97;;
71343;SDS011;59146;43.850;25.948;2022-10-17T14:03:44;11.85;;;3.33;;
71343;SDS011;59146;43.850;25.948;2022-10-17T14:06:17;5.22;;;3.38;;
71343;SDS011;59146;43.850;25.948;2022-10-17T14:08:50;5.07;;;2.60;;
71343;SDS011;59146;43.850;25.948;2022-10-17T14:11:28;3.72;;;2.53;;
71343;SDS011;59146;43.850;25.948;2022-10-17T14:13:57;6.82;;;2.47;;
71343;SDS011;59146;43.850;25.948;2022-10-17T14:16:25;7.90;;;2.95;;
71343;SDS011;59146;43.850;25.948;2022-10-17T14:18:57;7.55;;;2.80;;
71343;SDS011;59146;43.850;25.948;2022-10-17T14:21:24;6.18;;;2.75;;
71343;SDS011;59146;43.850;25.948;2022-10-17T14:24:10;4.68;;;2.97;;
71343;SDS011;59146;43.850;25.948;2022-10-17T14:26:45;7.15;;;3.50;;
71343;SDS011;59146;43.850;25.948;2022-10-17T14:29:28;7.28;;;3.42;;
71343;SDS011;59146;43.850;25.948;2022-10-17T14:31:56;9.23;;;3.63;;
71343;SDS011;59146;43.850;25.948;2022-10-17T14:34:26;7.05;;;3.00;;
71343;SDS011;59146;43.850;25.948;2022-10-17T14:36:56;10.00;;;3.58;;
71343;SDS011;59146;43.850;25.948;2022-10-17T14:39:23;8.65;;;2.95;;
71343;SDS011;59146;43.850;25.948;2022-10-17T14:41:50;6.80;;;3.08;;
71343;SDS011;59146;43.850;25.948;2022-10-17T14:44:18;17.88;;;4.50;;
71343;SDS011;59146;43.850;25.948;2022-10-17T14:46:45;44.03;;;5.97;;
71343;SDS011;59146;43.850;25.948;2022-10-17T14:49:19;16.80;;;3.65;;
71343;SDS011;59146;43.850;25.948;2022-10-17T14:54:34;9.60;;;3.90;;
71343;SDS011;59146;43.850;25.948;2022-10-17T14:57:00;8.25;;;3.35;;
71343;SDS011;59146;43.850;25.948;2022-10-17T14:59:56;8.38;;;3.50;;
71343;SDS011;59146;43.850;25.948;2022-10-17T15:02:22;8.48;;;2.90;;
71343;SDS011;59146;43.850;25.948;2022-10-17T15:04:53;6.20;;;3.25;;
71343;SDS011;59146;43.850;25.948;2022-10-17T15:07:19;8.38;;;3.47;;
71343;SDS011;59146;43.850;25.948;2022-10-17T15:09:46;21.73;;;5.47;;
71343;SDS011;59146;43.850;25.948;2022-10-17T15:12:13;11.48;;;3.70;;
71343;SDS011;59146;43.850;25.948;2022-10-17T15:14:41;17.35;;;4.30;;
71343;SDS011;59146;43.850;25.948;2022-10-17T15:17:09;17.25;;;3.80;;
71343;SDS011;59146;43.850;25.948;2022-10-17T15:22:03;14.95;;;5.10;;
71343;SDS011;59146;43.850;25.948;2022-10-17T15:24:28;28.27;;;7.32;;
71343;SDS011;59146;43.850;25.948;2022-10-17T15:26:54;27.88;;;7.38;;
71343;SDS011;59146;43.850;25.948;2022-10-17T15:29:20;21.35;;;7.13;;
71343;SDS011;59146;43.850;25.948;2022-10-17T15:31:45;34.17;;;6.75;;
71343;SDS011;59146;43.850;25.948;2022-10-17T15:34:11;26.83;;;8.77;;
71343;SDS011;59146;43.850;25.948;2022-10-17T15:36:40;20.67;;;8.15;;
71343;SDS011;59146;43.850;25.948;2022-10-17T15:39:06;28.65;;;9.13;;
71343;SDS011;59146;43.850;25.948;2022-10-17T15:41:33;23.98;;;13.80;;
71343;SDS011;59146;43.850;25.948;2022-10-17T15:43:59;22.25;;;9.32;;
71343;SDS011;59146;43.850;25.948;2022-10-17T15:46:29;26.83;;;9.73;;
71343;SDS011;59146;43.850;25.948;2022-10-17T15:49:07;16.33;;;6.13;;
71343;SDS011;59146;43.850;25.948;2022-10-17T15:51:36;24.15;;;6.78;;
71343;SDS011;59146;43.850;25.948;2022-10-17T15:54:01;24.25;;;7.25;;
71343;SDS011;59146;43.850;25.948;2022-10-17T15:56:30;29.48;;;8.25;;
71343;SDS011;59146;43.850;25.948;2022-10-17T15:59:00;24.95;;;9.80;;
71343;SDS011;59146;43.850;25.948;2022-10-17T16:01:28;17.13;;;7.60;;
71343;SDS011;59146;43.850;25.948;2022-10-17T16:03:55;30.08;;;8.60;;
71343;SDS011;59146;43.850;25.948;2022-10-17T16:06:22;23.20;;;10.48;;
71343;SDS011;59146;43.850;25.948;2022-10-17T16:08:48;32.00;;;10.10;;
71343;SDS011;59146;43.850;25.948;2022-10-17T16:13:57;35.08;;;12.75;;
71343;SDS011;59146;43.850;25.948;2022-10-17T16:16:24;38.92;;;13.40;;
71343;SDS011;59146;43.850;25.948;2022-10-17T16:18:50;36.53;;;14.38;;
71343;SDS011;59146;43.850;25.948;2022-10-17T16:21:16;41.85;;;18.73;;
71343;SDS011;59146;43.850;25.948;2022-10-17T16:23:43;47.65;;;17.42;;
71343;SDS011;59146;43.850;25.948;2022-10-17T16:26:09;43.92;;;14.90;;
71343;SDS011;59146;43.850;25.948;2022-10-17T16:28:38;41.00;;;12.95;;
71343;SDS011;59146;43.850;25.948;2022-10-17T16:31:03;38.25;;;14.77;;
71343;SDS011;59146;43.850;25.948;2022-10-17T16:33:29;39.83;;;14.88;;
71343;SDS011;59146;43.850;25.948;2022-10-17T16:35:55;42.90;;;13.27;;
71343;SDS011;59146;43.850;25.948;2022-10-17T16:38:21;37.85;;;13.40;;
71343;SDS011;59146;43.850;25.948;2022-10-17T16:40:46;52.08;;;19.02;;
71343;SDS011;59146;43.850;25.948;2022-10-17T16:43:11;56.78;;;19.20;;
71343;SDS011;59146;43.850;25.948;2022-10-17T16:45:38;58.38;;;19.52;;
71343;SDS011;59146;43.850;25.948;2022-10-17T16:48:04;62.25;;;20.58;;
71343;SDS011;59146;43.850;25.948;2022-10-17T16:50:30;75.28;;;24.30;;
71343;SDS011;59146;43.850;25.948;2022-10-17T16:52:59;60.65;;;24.30;;
71343;SDS011;59146;43.850;25.948;2022-10-17T16:55:24;69.68;;;24.65;;
71343;SDS011;59146;43.850;25.948;2022-10-17T16:57:50;54.88;;;20.90;;
71343;SDS011;59146;43.850;25.948;2022-10-17T17:00:15;52.38;;;17.27;;
71343;SDS011;59146;43.850;25.948;2022-10-17T17:02:42;59.58;;;19.60;;
71343;SDS011;59146;43.850;25.948;2022-10-17T17:05:07;59.05;;;22.25;;